createdAt,value
2022-12-08T00:00:43.500Z,1.14
2022-12-08T00:05:43.485Z,1.15
2022-12-08T00:10:50.782Z,1.13
2022-12-08T00:15:43.526Z,1.11
2022-12-08T00:20:43.487Z,1.17
2022-12-08T00:30:43.490Z,1.13
2022-12-08T00:35:43.581Z,1.12
2022-12-08T00:40:43.472Z,1.01
2022-12-08T00:45:43.562Z,1.01
2022-12-08T00:50:43.474Z,1.01
2022-12-08T00:55:43.455Z,0.93
2022-12-08T01:05:43.465Z,0.96
2022-12-08T01:10:43.460Z,0.89
2022-12-08T01:15:43.470Z,0.86
2022-12-08T01:20:43.455Z,0.8
2022-12-08T01:30:43.521Z,0.93
2022-12-08T01:35:43.455Z,0.9
2022-12-08T01:40:43.444Z,0.99
2022-12-08T01:45:43.518Z,0.99
2022-12-08T01:50:43.450Z,0.99
2022-12-08T01:55:43.448Z,0.96
2022-12-08T02:00:43.472Z,0.93
2022-12-08T02:05:43.443Z,0.96
2022-12-08T02:10:43.474Z,0.98
2022-12-08T02:15:43.489Z,0.95
2022-12-08T02:20:43.451Z,0.9
2022-12-08T02:25:43.439Z,0.86
2022-12-08T02:30:43.513Z,0.75
2022-12-08T02:35:43.456Z,0.67
2022-12-08T02:40:43.429Z,0.67
2022-12-08T02:45:43.426Z,0.66
2022-12-08T02:50:43.435Z,0.64
2022-12-08T02:55:43.452Z,0.61
2022-12-08T03:00:43.428Z,0.58
2022-12-08T03:05:43.432Z,0.57
2022-12-08T03:10:43.434Z,0.63
2022-12-08T03:15:43.466Z,0.59
2022-12-08T03:20:43.443Z,0.68
2022-12-08T03:25:43.431Z,0.72
2022-12-08T03:30:43.455Z,0.68
2022-12-08T03:35:43.420Z,0.65
2022-12-08T03:40:43.412Z,0.61
2022-12-08T03:45:43.860Z,0.57
2022-12-08T03:50:43.433Z,0.54
2022-12-08T03:55:43.408Z,0.56
2022-12-08T04:00:43.413Z,0.56
2022-12-08T04:05:43.413Z,0.61
2022-12-08T04:10:43.402Z,0.61
2022-12-08T04:15:43.461Z,0.56
2022-12-08T04:20:43.409Z,0.63
2022-12-08T04:25:43.410Z,0.64
2022-12-08T04:30:43.403Z,0.63
2022-12-08T04:35:43.415Z,0.58
2022-12-08T04:40:43.400Z,0.59
2022-12-08T04:45:43.403Z,0.58
2022-12-08T04:50:43.386Z,0.54
2022-12-08T04:55:43.385Z,0.54
2022-12-08T05:00:43.388Z,0.53
2022-12-08T05:05:43.408Z,0.55
2022-12-08T05:10:43.396Z,0.6
2022-12-08T05:15:43.477Z,0.56
2022-12-08T05:20:43.389Z,0.57
2022-12-08T05:25:43.392Z,0.52
2022-12-08T05:30:43.414Z,0.53
2022-12-08T05:35:43.408Z,0.46
2022-12-08T05:40:43.391Z,0.53
2022-12-08T05:45:43.440Z,0.56
2022-12-08T05:50:43.386Z,0.69
2022-12-08T05:55:43.404Z,0.72
2022-12-08T06:05:43.498Z,0.8
2022-12-08T06:10:43.371Z,0.79
2022-12-08T06:15:43.361Z,0.8
2022-12-08T06:20:43.373Z,0.78
2022-12-08T06:25:43.361Z,0.8
2022-12-08T06:30:43.373Z,0.8
2022-12-08T06:35:43.374Z,0.73
2022-12-08T06:40:43.365Z,0.69
2022-12-08T06:45:43.366Z,0.68
2022-12-08T06:50:43.353Z,0.56
2022-12-08T06:55:58.659Z,0.53
2022-12-08T07:00:43.588Z,0.45
2022-12-08T07:05:43.352Z,0.38
2022-12-08T07:10:43.345Z,0.24
2022-12-08T07:15:43.342Z,0.15
2022-12-08T07:20:43.356Z,0.09
2022-12-08T07:25:43.347Z,0.12
2022-12-08T07:30:43.605Z,0.2
2022-12-08T07:35:48.965Z,0.27
2022-12-08T07:40:43.328Z,0.36
2022-12-08T07:45:43.368Z,0.44
2022-12-08T07:50:43.353Z,0.45
2022-12-08T07:55:43.380Z,0.51
2022-12-08T08:00:43.414Z,0.52
2022-12-08T08:05:43.352Z,0.66
2022-12-08T08:10:43.327Z,0.84
2022-12-08T08:15:43.406Z,0.94
2022-12-08T08:20:43.345Z,1.06
2022-12-08T08:25:43.329Z,1.24
2022-12-08T08:30:43.348Z,1.4
2022-12-08T08:35:43.335Z,1.57
2022-12-08T08:40:43.311Z,1.7
2022-12-08T08:45:43.314Z,1.83
2022-12-08T08:50:43.325Z,1.94
2022-12-08T08:55:43.320Z,2.05
2022-12-08T09:00:43.324Z,2.18
2022-12-08T09:05:43.373Z,2.32
2022-12-08T09:10:43.317Z,2.41
2022-12-08T09:15:43.345Z,2.54
2022-12-08T09:20:43.319Z,2.71
2022-12-08T09:25:43.296Z,2.87
2022-12-08T09:30:43.295Z,2.9
2022-12-08T09:35:43.314Z,3.08
2022-12-08T09:40:43.287Z,3.25
2022-12-08T09:45:43.286Z,3.5
2022-12-08T09:50:43.306Z,3.72
2022-12-08T09:55:43.294Z,3.79
2022-12-08T10:00:43.341Z,3.85
2022-12-08T10:05:43.284Z,3.94
2022-12-08T10:10:43.277Z,3.99
2022-12-08T10:15:43.361Z,4.05
2022-12-08T10:20:43.283Z,4.08
2022-12-08T10:25:43.287Z,4.02
2022-12-08T10:30:43.269Z,3.95
2022-12-08T10:35:43.293Z,4
2022-12-08T10:40:45.678Z,4.06
2022-12-08T10:45:43.256Z,4.15
2022-12-08T10:50:43.266Z,4.2
2022-12-08T10:55:43.251Z,4.69
2022-12-08T11:00:43.395Z,4.98
2022-12-08T11:05:43.263Z,5.19
2022-12-08T11:10:43.250Z,5.27
2022-12-08T11:15:43.244Z,5.42
2022-12-08T11:20:43.230Z,5.64
2022-12-08T11:25:43.221Z,5.82
2022-12-08T11:30:43.218Z,5.74
2022-12-08T11:35:43.231Z,5.59
2022-12-08T11:40:43.240Z,5.53
2022-12-08T11:45:43.267Z,5.55
2022-12-08T11:50:43.217Z,5.38
2022-12-08T11:55:46.671Z,5.09
2022-12-08T12:00:43.205Z,4.75
2022-12-08T12:10:43.194Z,4.78
2022-12-08T12:15:43.205Z,4.83
2022-12-08T12:20:43.208Z,5.04
2022-12-08T12:25:43.180Z,5.47
2022-12-08T12:30:43.227Z,5.66
2022-12-08T12:35:43.213Z,5.87
2022-12-08T12:40:43.181Z,5.89
2022-12-08T12:45:43.213Z,5.98
2022-12-08T12:50:43.174Z,6.26
2022-12-08T12:55:43.196Z,6.32
2022-12-08T13:00:43.164Z,6.4
2022-12-08T13:05:43.173Z,6.29
2022-12-08T13:10:43.146Z,6.29
2022-12-08T13:15:43.154Z,6.23
2022-12-08T13:20:43.156Z,7.6
2022-12-08T13:25:43.155Z,7.69
2022-12-08T13:30:43.253Z,7.21
2022-12-08T13:35:43.139Z,6.75
2022-12-08T13:40:43.139Z,6.48
2022-12-08T13:50:55.621Z,6.05
2022-12-08T14:00:43.127Z,5.58
2022-12-08T14:06:10.849Z,5.48
2022-12-08T14:10:43.102Z,5.32
2022-12-08T14:15:43.155Z,5.12
2022-12-08T14:21:12.517Z,4.83
2022-12-08T14:25:43.094Z,4.63
2022-12-08T14:30:43.138Z,4.45
2022-12-08T14:35:43.096Z,4.2
2022-12-08T14:40:43.088Z,4.15
2022-12-08T14:45:43.110Z,3.97
2022-12-08T14:50:43.074Z,3.87
2022-12-08T14:55:43.072Z,3.7
2022-12-08T15:00:43.083Z,3.54
2022-12-08T15:05:43.128Z,3.34
2022-12-08T15:10:43.064Z,3.06
2022-12-08T15:15:43.116Z,2.8
2022-12-08T15:20:43.069Z,2.59
2022-12-08T15:30:43.062Z,2.15
2022-12-08T15:35:43.063Z,1.93
2022-12-08T15:50:43.051Z,1.2
2022-12-08T16:15:58.979Z,0.39
2022-12-08T16:26:16.004Z,0.07
2022-12-08T16:30:43.044Z,-0.11
2022-12-08T16:35:43.038Z,-0.21
2022-12-08T16:40:43.032Z,-0.33
2022-12-08T16:45:44.901Z,-0.41
2022-12-08T16:50:43.033Z,-0.5
2022-12-08T16:55:43.047Z,-0.58
2022-12-08T17:00:43.084Z,-0.65
2022-12-08T17:05:43.065Z,-0.68
2022-12-08T17:10:43.029Z,-0.79
2022-12-08T17:15:43.024Z,-0.89
2022-12-08T17:20:43.030Z,-1.01
2022-12-08T17:25:43.023Z,-1.04
2022-12-08T17:30:43.019Z,-1.05
2022-12-08T17:35:43.033Z,-1.05
2022-12-08T17:40:43.020Z,-1.06
2022-12-08T17:45:43.088Z,-1.08
2022-12-08T17:50:43.029Z,-1.15
2022-12-08T17:55:43.018Z,-1.22
2022-12-08T18:00:43.014Z,-1.27
2022-12-08T18:05:43.055Z,-1.35
2022-12-08T18:10:43.040Z,-1.41
2022-12-08T18:15:43.160Z,-1.41
2022-12-08T18:20:43.040Z,-1.42
2022-12-08T18:25:43.018Z,-1.42
2022-12-08T18:30:43.057Z,-1.42
2022-12-08T18:35:43.028Z,-1.42
2022-12-08T18:40:43.057Z,-1.42
2022-12-08T18:45:43.052Z,-1.57
2022-12-08T18:50:43.015Z,-1.64
2022-12-08T18:55:43.006Z,-1.56
2022-12-08T19:00:43.022Z,-1.42
2022-12-08T19:05:43.010Z,-1.42
2022-12-08T19:10:43.007Z,-1.42
2022-12-08T19:15:43.061Z,-1.42
2022-12-08T19:20:43.024Z,-1.53
2022-12-08T19:25:42.994Z,-1.62
2022-12-08T19:30:43.071Z,-1.75
2022-12-08T19:35:46.242Z,-1.76
2022-12-08T19:40:43.007Z,-1.81
2022-12-08T19:45:43.052Z,-1.89
2022-12-08T19:50:43.025Z,-1.96
2022-12-08T19:55:43.020Z,-1.99
2022-12-08T20:00:43.013Z,-2.05
2022-12-08T20:05:43.018Z,-2.1
2022-12-08T20:10:43.022Z,-2.2
2022-12-08T20:15:43.135Z,-2.23
2022-12-08T20:20:42.998Z,-2.2
2022-12-08T20:25:43.012Z,-2.2
2022-12-08T20:30:43.020Z,-2.21
2022-12-08T20:35:42.982Z,-2.34
2022-12-08T20:40:43.025Z,-2.42
2022-12-08T20:45:42.994Z,-2.44
2022-12-08T20:50:43.167Z,-2.51
2022-12-08T20:55:43.058Z,-2.53
2022-12-08T21:00:43.111Z,-2.52
2022-12-08T21:05:43.083Z,-2.67
2022-12-08T21:10:44.034Z,-2.79
2022-12-08T21:15:43.067Z,-2.76
2022-12-08T21:20:43.096Z,-2.85
2022-12-08T21:25:43.023Z,-2.79
2022-12-08T21:30:43.130Z,-2.74
2022-12-08T21:35:43.136Z,-2.81
2022-12-08T21:40:43.065Z,-2.81
2022-12-08T21:45:43.010Z,-2.94
2022-12-08T21:50:43.044Z,-3.02
2022-12-08T21:55:43.155Z,-3.08
2022-12-08T22:00:43.285Z,-3.01
2022-12-08T22:05:43.133Z,-2.98
2022-12-08T22:10:42.984Z,-2.94
2022-12-08T22:15:43.031Z,-2.93
2022-12-08T22:20:44.354Z,-2.94
2022-12-08T22:25:43.291Z,-3.04
2022-12-08T22:30:43.174Z,-3.09
2022-12-08T22:35:43.085Z,-2.98
2022-12-08T22:40:43.097Z,-2.87
2022-12-08T22:45:43.345Z,-2.75
2022-12-08T22:50:43.097Z,-2.59
2022-12-08T22:55:43.275Z,-2.48
2022-12-08T23:00:43.010Z,-2.34
2022-12-08T23:05:43.130Z,-2.22
2022-12-08T23:10:43.003Z,-2.17
2022-12-08T23:15:43.062Z,-2.21
2022-12-08T23:20:43.006Z,-2.34
2022-12-08T23:25:43.109Z,-2.34
2022-12-08T23:30:43.109Z,-2.34
2022-12-08T23:35:42.984Z,-2.4
2022-12-08T23:40:43.223Z,-2.54
2022-12-08T23:45:43.077Z,-2.61
2022-12-08T23:50:42.986Z,-2.61
2022-12-08T23:55:42.999Z,-2.72
